Kayanm — FH8826 — position and weather

sailwx.info

Track history (hours):
 
Tides and Currents Weather Stations Pressure Air Temp Water Temp Dewpoint Dewpoint Depression Visibility Wind Speed Wind Dir Waves Ship Positions

Kayanm

Last reported at 2018-Jun-02 16:35 UTC. Time now 2018-Jun-20 11:12 UTC.
Position N 44°44' W 001°55'.
Warning: this ship's position is 17 days out of date.

Length 13 m.

Type: Sailing vessel. MMSI: 227101160.

Date/timePositionNaut miles runAvg speedWind from/ knotsBaromVisibWave heightAir tempDewpointWater temp
2018-Jun-02 16:35N 44°44' W 001°55'0 3.5
2018-Jun-02 16:29N 44°43' W 001°55'2 3.6
2018-Jun-02 15:58N 44°41' W 001°55'2 3.8
2018-Jun-02 15:30N 44°40' W 001°55'2 4.0
2018-Jun-02 15:00N 44°38' W 001°56'2 4.0
2018-Jun-02 14:30N 44°36' W 001°57'2 3.8
2018-Jun-02 13:58N 44°34' W 001°58'1 1.4
2018-Jun-02 13:28N 44°34' W 001°59'1 1.4
2018-Jun-02 13:00N 44°33' W 001°60'1 1.1
2018-Jun-02 12:29N 44°33' W 001°59'1 1.9
2018-Jun-02 11:58N 44°32' W 001°60'1 1.8
2018-Jun-02 11:30N 44°31' W 001°60'1 1.7
2018-Jun-02 11:00N 44°30' W 002°00'1 1.7
2018-Jun-02 10:20N 44°29' W 002°00'1 2.5
2018-Jun-02 09:53N 44°28' W 002°00'1 2.6
2018-Jun-02 09:30N 44°27' W 002°00'12 2.9
2018-Jun-02 05:28N 44°15' W 001°56'3 5.1
2018-Jun-02 04:57N 44°15' W 001°60'2 3.4
2018-Jun-02 04:28N 44°13' W 001°59'2 5.3
2018-Jun-02 04:01N 44°11' W 001°57'3 5.6
2018-Jun-02 03:29N 44°08' W 001°56'3 5.2
2018-Jun-02 03:00N 44°06' W 001°55'3 5.3
2018-Jun-02 02:23N 44°03' W 001°54'2 5.3
2018-Jun-02 01:59N 44°00' W 001°54'3 5.7
2018-Jun-02 01:30N 43°58' W 001°54'3 5.5
2018-Jun-02 01:01N 43°55' W 001°53'3 5.3
2018-Jun-02 00:30N 43°52' W 001°52'2 4.8
2018-Jun-02 00:01N 43°50' W 001°52'2 4.7
2018-Jun-01 23:30N 43°48' W 001°51'2 5.1
2018-Jun-01 23:00N 43°45' W 001°50'3 5.4
2018-Jun-01 22:31N 43°43' W 001°49'2 4.2
2018-Jun-01 22:01N 43°41' W 001°48'2 3.9
2018-Jun-01 21:30N 43°39' W 001°48'2 3.9
2018-Jun-01 21:00N 43°37' W 001°48'3 5.5
2018-Jun-01 20:30N 43°34' W 001°48'3 6.1
2018-Jun-01 20:00N 43°31' W 001°47'2 4.3
2018-Jun-01 19:31N 43°29' W 001°47'3 5.2
2018-Jun-01 19:00N 43°26' W 001°47'2 4.5
2018-Jun-01 18:30N 43°24' W 001°47'2 2.8
2018-Jun-01 17:57N 43°23' W 001°48'  
Track history (hours):
 
Tides and Currents Weather Stations Pressure Air Temp Water Temp Dewpoint Dewpoint Depression Visibility Wind Speed Wind Dir Waves Ship Positions

Kayanm

Last reported at 2018-Jun-02 16:35 UTC. Time now 2018-Jun-20 11:12 UTC.
Position N 44°44' W 001°55'.
Warning: this ship's position is 17 days out of date.

Length 13 m.

Type: Sailing vessel. MMSI: 227101160.

Date/timePositionNaut miles runAvg speedWind from/ knotsBaromVisibWave heightAir tempDewpointWater temp
2018-Jun-02 16:35N 44°44' W 001°55'0 3.5
2018-Jun-02 16:29N 44°43' W 001°55'2 3.6
2018-Jun-02 15:58N 44°41' W 001°55'2 3.8
2018-Jun-02 15:30N 44°40' W 001°55'2 4.0
2018-Jun-02 15:00N 44°38' W 001°56'2 4.0
2018-Jun-02 14:30N 44°36' W 001°57'2 3.8
2018-Jun-02 13:58N 44°34' W 001°58'1 1.4
2018-Jun-02 13:28N 44°34' W 001°59'1 1.4
2018-Jun-02 13:00N 44°33' W 001°60'1 1.1
2018-Jun-02 12:29N 44°33' W 001°59'1 1.9
2018-Jun-02 11:58N 44°32' W 001°60'1 1.8
2018-Jun-02 11:30N 44°31' W 001°60'1 1.7
2018-Jun-02 11:00N 44°30' W 002°00'1 1.7
2018-Jun-02 10:20N 44°29' W 002°00'1 2.5
2018-Jun-02 09:53N 44°28' W 002°00'1 2.6
2018-Jun-02 09:30N 44°27' W 002°00'12 2.9
2018-Jun-02 05:28N 44°15' W 001°56'3 5.1
2018-Jun-02 04:57N 44°15' W 001°60'2 3.4
2018-Jun-02 04:28N 44°13' W 001°59'2 5.3
2018-Jun-02 04:01N 44°11' W 001°57'3 5.6
2018-Jun-02 03:29N 44°08' W 001°56'3 5.2
2018-Jun-02 03:00N 44°06' W 001°55'3 5.3
2018-Jun-02 02:23N 44°03' W 001°54'2 5.3
2018-Jun-02 01:59N 44°00' W 001°54'3 5.7
2018-Jun-02 01:30N 43°58' W 001°54'3 5.5
2018-Jun-02 01:01N 43°55' W 001°53'3 5.3
2018-Jun-02 00:30N 43°52' W 001°52'2 4.8
2018-Jun-02 00:01N 43°50' W 001°52'2 4.7
2018-Jun-01 23:30N 43°48' W 001°51'2 5.1
2018-Jun-01 23:00N 43°45' W 001°50'3 5.4
2018-Jun-01 22:31N 43°43' W 001°49'2 4.2
2018-Jun-01 22:01N 43°41' W 001°48'2 3.9
2018-Jun-01 21:30N 43°39' W 001°48'2 3.9
2018-Jun-01 21:00N 43°37' W 001°48'3 5.5
2018-Jun-01 20:30N 43°34' W 001°48'3 6.1
2018-Jun-01 20:00N 43°31' W 001°47'2 4.3
2018-Jun-01 19:31N 43°29' W 001°47'3 5.2
2018-Jun-01 19:00N 43°26' W 001°47'2 4.5
2018-Jun-01 18:30N 43°24' W 001°47'2 2.8
2018-Jun-01 17:57N 43°23' W 001°48'  

Dump ship's entire track history